KASH/ASH METAR and TAF weather

Enter ICAO airport designator
Station Type Date Time Source
KASH METAR 2018/12/13 14:56 UTC NOAA

KASH 131456Z 00000KT 10SM BKN120 M07/M13 A3055 RMK AO2 SLP358 T10721133 51017 $


Station Type Date Time Source
KASH Decoded METAR 2018/12/13 14:56 UTC NOAA

Nashua, Boire Field Airport, NH, United States (KASH) 42-46-54N 071-30-53W
Dec 13, 2018 - 09:56 AM EST / 2018.12.13 1456 UTC
Wind: Calm:0
Visibility: 10 mile(s):0
Sky conditions: mostly cloudy
Temperature: 19.0 F (-7.2 C)
Dew Point: 8.1 F (-13.3 C)
Relative Humidity: 61%
Pressure (altimeter): 30.55 in. Hg (1034 hPa)
Pressure tendency: 0.05 inches (1.7 hPa) higher than three hours ago
ob: KASH 131456Z 00000KT 10SM BKN120 M07/M13 A3055 RMK AO2 SLP358 T10721133 51017
cycle: 15

Station Type Date Time Source
KASH TAF UTC NOAA

Error!


Example: see airport list